Time;durP1;ratioP1;P1;durP2;ratioP2;P2;SDS_P1;SDS_P2;PMS_P1;PMS_P2;Temp;Humidity;BMP_temperature;BMP_pressure;BME280_temperature;BME280_humidity;BME280_pressure;Samples;Min_cycle;Max_cycle;Signal;HPM_P1;HPM_P2
2022/11/05 00:59:19;;;;;;;2.07;1.50;;;;;;;8.18;100.00;98126.19;5022361;28;20060;-72
2022/11/05 01:01:44;;;;;;;2.10;1.73;;;;;;;8.22;100.00;98154.19;5028134;28;20284;-73
2022/11/05 01:04:10;;;;;;;2.75;1.92;;;;;;;8.30;100.00;98155.78;5025302;28;20045;-73
2022/11/05 01:06:35;;;;;;;3.95;2.17;;;;;;;8.32;100.00;98175.31;5002635;28;20042;-73
2022/11/05 01:58:19;;;;;;;1.85;1.75;;;;;;;8.41;100.00;98204.94;5028860;28;20735;-66
2022/11/05 02:00:45;;;;;;;3.00;2.47;;;;;;;8.37;100.00;98195.66;5030012;28;20049;-74
2022/11/05 02:03:13;;;;;;;3.08;2.08;;;;;;;8.32;100.00;98189.81;5014692;28;20072;-71
2022/11/05 02:05:40;;;;;;;3.20;2.00;;;;;;;8.42;100.00;98198.97;5015739;28;20044;-73
2022/11/05 02:08:12;;;;;;;1.92;1.67;;;;;;;8.43;100.00;98208.34;5033555;28;20116;-72
2022/11/05 02:59:47;;;;;;;2.30;1.90;;;;;;;8.45;100.00;98192.09;4996168;28;20324;-61
2022/11/05 03:02:12;;;;;;;1.98;1.58;;;;;;;8.36;100.00;98174.38;5005422;28;20503;-61
2022/11/05 03:59:23;;;;;;;2.55;2.35;;;;;;;8.53;100.00;98154.47;5002739;28;20459;-69
2022/11/05 04:01:48;;;;;;;2.90;2.65;;;;;;;8.55;100.00;98151.91;5007267;28;20046;-69
2022/11/05 04:04:14;;;;;;;1.83;1.73;;;;;;;8.49;100.00;98152.88;4990141;28;20052;-69
2022/11/05 04:59:48;;;;;;;3.22;2.92;;;;;;;8.28;100.00;98238.34;4990227;28;20111;-69
2022/11/05 05:02:14;;;;;;;2.57;2.37;;;;;;;8.39;100.00;98247.56;4994498;28;20050;-70
2022/11/05 05:04:39;;;;;;;5.18;2.70;;;;;;;8.33;100.00;98248.50;4993747;28;20037;-70
2022/11/05 05:07:05;;;;;;;3.72;2.85;;;;;;;8.38;100.00;98259.50;4993803;28;20481;-71
2022/11/05 05:32:14;;;;;;;4.03;3.72;;;;;;;8.30;100.00;98283.47;4991178;28;20045;-72
2022/11/05 05:34:40;;;;;;;5.90;5.40;;;;;;;8.24;100.00;98266.50;4992655;28;20042;-71
2022/11/05 05:37:05;;;;;;;9.18;8.57;;;;;;;8.34;100.00;98303.00;4979635;28;20193;-71
2022/11/05 05:39:31;;;;;;;17.73;16.73;;;;;;;8.34;100.00;98306.38;4987088;28;20050;-73
2022/11/05 05:41:57;;;;;;;34.17;32.63;;;;;;;8.41;100.00;98327.56;4992979;28;20046;-74
2022/11/05 05:44:22;;;;;;;14.13;13.07;;;;;;;8.34;100.00;98311.50;4993623;28;20049;-75
2022/11/05 05:46:48;;;;;;;46.47;43.97;;;;;;;8.38;100.00;98308.03;4972414;28;20046;-75
2022/11/05 05:49:13;;;;;;;53.22;50.90;;;;;;;8.25;100.00;98296.28;4992377;28;20050;-72
2022/11/05 05:51:40;;;;;;;33.78;32.10;;;;;;;8.37;100.00;98318.25;4994068;28;20438;-67
2022/11/05 05:54:05;;;;;;;51.60;49.27;;;;;;;8.41;100.00;98313.09;4993655;28;20125;-65
2022/11/05 05:56:31;;;;;;;35.67;33.70;;;;;;;8.31;100.00;98306.44;4986027;28;20436;-69
2022/11/05 05:58:57;;;;;;;66.15;63.40;;;;;;;8.39;100.00;98321.66;4999953;28;20464;-70
2022/11/05 06:01:22;;;;;;;44.83;42.77;;;;;;;8.27;100.00;98305.59;5001979;28;20476;-63
2022/11/05 06:03:48;;;;;;;49.47;47.10;;;;;;;8.37;100.00;98310.59;5012639;28;20104;-63
2022/11/05 06:06:18;;;;;;;23.03;21.93;;;;;;;8.36;100.00;98306.38;5002830;28;20504;-62
2022/11/05 06:08:44;;;;;;;21.75;20.52;;;;;;;8.21;100.00;98295.50;5011419;28;20141;-62
2022/11/05 06:11:09;;;;;;;55.97;53.47;;;;;;;8.35;100.00;98313.19;5006056;28;20049;-64
2022/11/05 06:13:36;;;;;;;42.75;40.45;;;;;;;8.34;100.00;98324.28;5008588;28;20126;-66
2022/11/05 06:16:07;;;;;;;33.75;32.15;;;;;;;8.42;100.00;98319.88;5010640;28;20044;-66
2022/11/05 06:22:19;;;;;;;36.75;35.00;;;;;;;8.39;100.00;98349.75;5015745;28;20095;-64
2022/11/05 06:24:45;;;;;;;25.63;24.27;;;;;;;8.24;100.00;98320.97;5014889;28;20053;-64
2022/11/05 06:27:10;;;;;;;48.77;46.63;;;;;;;8.43;100.00;98354.78;5015405;28;20100;-64
2022/11/05 06:29:36;;;;;;;33.93;32.47;;;;;;;8.50;100.00;98352.97;5015062;28;20067;-65
2022/11/05 06:32:02;;;;;;;37.57;35.87;;;;;;;8.43;100.00;98356.50;5006487;28;20578;-64
2022/11/05 06:34:27;;;;;;;47.23;45.17;;;;;;;8.33;100.00;98348.13;5014993;28;20053;-66
2022/11/05 06:36:53;;;;;;;48.17;46.10;;;;;;;8.42;100.00;98349.69;5017077;28;20045;-63
2022/11/05 06:39:18;;;;;;;50.97;48.67;;;;;;;8.46;100.00;98346.22;5017128;28;20401;-65
2022/11/05 06:41:44;;;;;;;74.65;71.40;;;;;;;8.50;100.00;98365.75;5015808;28;20453;-64
2022/11/05 06:44:09;;;;;;;76.38;73.15;;;;;;;8.61;100.00;98387.69;5014563;28;20093;-64
2022/11/05 06:46:35;;;;;;;79.17;75.50;;;;;;;8.52;100.00;98359.75;5012041;28;20076;-66
2022/11/05 06:49:00;;;;;;;58.10;55.65;;;;;;;8.61;100.00;98371.56;5016221;28;20061;-65
2022/11/05 06:51:26;;;;;;;74.33;70.93;;;;;;;8.63;100.00;98401.31;4998108;28;20106;-66
2022/11/05 06:53:52;;;;;;;79.70;76.20;;;;;;;8.52;100.00;98369.13;5007686;28;20054;-66
2022/11/05 06:56:17;;;;;;;75.63;72.28;;;;;;;8.63;100.00;98385.13;5011837;28;20033;-65
2022/11/05 06:58:43;;;;;;;86.15;82.25;;;;;;;8.66;100.00;98392.75;5015403;28;20050;-65
2022/11/05 07:01:09;;;;;;;97.45;93.10;;;;;;;8.69;100.00;98401.25;5016549;28;20125;-66
2022/11/05 07:03:36;;;;;;;101.93;97.05;;;;;;;8.65;100.00;98407.25;5017591;28;20084;-64
2022/11/05 07:06:03;;;;;;;96.88;92.45;;;;;;;8.70;100.00;98405.44;5013238;28;20480;-64
2022/11/05 07:08:36;;;;;;;90.32;86.25;;;;;;;8.65;100.00;98394.47;5018963;28;20048;-64
2022/11/05 07:11:03;;;;;;;82.18;78.63;;;;;;;8.75;100.00;98402.84;5015051;28;20041;-65
2022/11/05 07:13:29;;;;;;;115.95;110.75;;;;;;;8.84;100.00;98417.19;5014694;28;20103;-64
2022/11/05 07:15:55;;;;;;;75.47;72.05;;;;;;;8.82;100.00;98407.00;5016462;28;20387;-65
2022/11/05 07:18:22;;;;;;;156.43;149.00;;;;;;;8.81;100.00;98410.41;5016071;28;20278;-65
2022/11/05 07:20:48;;;;;;;143.27;136.57;;;;;;;8.87;100.00;98427.38;5007387;28;20069;-64
2022/11/05 07:23:14;;;;;;;220.00;208.25;;;;;;;8.88;100.00;98391.53;4999983;28;20026;-64
2022/11/05 07:25:41;;;;;;;246.32;233.05;;;;;;;8.84;100.00;98396.72;5013946;28;20038;-68
2022/11/05 07:28:09;;;;;;;295.55;278.98;;;;;;;8.84;100.00;98401.84;5016291;28;20433;-66
2022/11/05 07:30:35;;;;;;;220.57;209.13;;;;;;;8.98;100.00;98448.50;4997095;28;20034;-65
2022/11/05 07:33:02;;;;;;;250.00;236.75;;;;;;;8.97;100.00;98436.56;5008736;28;20041;-64
2022/11/05 07:35:27;;;;;;;168.38;159.95;;;;;;;8.96;100.00;98435.72;5010172;28;20285;-64
2022/11/05 07:37:54;;;;;;;230.18;217.68;;;;;;;8.99;100.00;98432.31;5016263;28;20120;-61
2022/11/05 07:40:21;;;;;;;329.63;309.10;;;;;;;8.90;100.00;98409.44;5017677;28;20052;-60
2022/11/05 07:42:49;;;;;;;407.90;373.73;;;;;;;8.88;100.00;98409.44;5014508;28;20072;-60
2022/11/05 07:45:15;;;;;;;424.53;385.10;;;;;;;8.89;100.00;98413.69;5014927;28;20041;-60
2022/11/05 07:47:51;;;;;;;397.07;365.90;;;;;;;9.07;100.00;98426.19;5014919;28;20118;-60
2022/11/05 07:50:18;;;;;;;409.80;370.50;;;;;;;9.11;100.00;98422.72;5013536;28;20038;-64
2022/11/05 07:52:44;;;;;;;398.52;370.05;;;;;;;9.14;100.00;98424.38;5013218;28;20046;-64
2022/11/05 07:55:10;;;;;;;425.73;384.80;;;;;;;9.24;100.00;98413.13;5010810;28;20049;-67
2022/11/05 07:57:44;;;;;;;450.60;420.13;;;;;;;9.26;100.00;98413.94;5010754;28;20033;-66
2022/11/05 08:00:12;;;;;;;364.47;336.40;;;;;;;9.35;100.00;98412.91;5008494;28;20042;-66
2022/11/05 08:02:39;;;;;;;420.13;378.23;;;;;;;9.45;100.00;98410.19;5011687;28;20049;-63
2022/11/05 08:05:05;;;;;;;487.30;328.20;;;;;;;9.45;100.00;98396.53;5013997;28;20037;-63
2022/11/05 08:07:31;;;;;;;362.33;330.20;;;;;;;9.65;100.00;98391.88;5013613;28;20144;-62
2022/11/05 08:09:56;;;;;;;498.03;393.00;;;;;;;9.60;100.00;98378.34;5010642;28;20404;-64
2022/11/05 08:12:22;;;;;;;507.70;379.90;;;;;;;9.81;100.00;98410.34;5007825;28;20100;-63
2022/11/05 08:14:47;;;;;;;472.90;395.03;;;;;;;9.85;100.00;98400.03;5010172;28;20132;-62
2022/11/05 08:17:13;;;;;;;469.00;398.33;;;;;;;9.95;100.00;98414.34;5013476;28;20466;-63
2022/11/05 08:19:39;;;;;;;490.60;397.80;;;;;;;9.82;100.00;98420.56;4998193;28;20064;-63
2022/11/05 08:22:04;;;;;;;511.03;388.90;;;;;;;9.84;100.00;98420.56;5014600;28;20042;-64
2022/11/05 08:24:30;;;;;;;471.73;393.43;;;;;;;9.69;100.00;98387.56;5009475;28;20187;-64
2022/11/05 08:26:55;;;;;;;473.37;386.73;;;;;;;9.78;100.00;98401.03;4991498;28;20675;-64
2022/11/05 08:29:21;;;;;;;483.03;359.87;;;;;;;9.89;100.00;98432.38;5008265;28;20491;-62
2022/11/05 08:31:46;;;;;;;18.88;17.40;;;;;;;9.94;100.00;98425.44;5013948;28;20485;-64
2022/11/05 08:34:12;;;;;;;58.67;54.20;;;;;;;10.01;100.00;98429.56;4996940;28;20212;-64
2022/11/05 08:36:40;;;;;;;67.22;63.17;;;;;;;9.96;100.00;98431.41;5015238;28;20026;-64
2022/11/05 08:39:06;;;;;;;260.38;233.02;;;;;;;10.04;100.00;98446.59;5013621;28;20041;-64
2022/11/05 08:41:32;;;;;;;3.10;2.75;;;;;;;10.07;100.00;98444.81;5014079;28;20061;-65
2022/11/05 08:43:57;;;;;;;3.60;1.77;;;;;;;10.04;100.00;98442.34;5014954;28;20070;-64
2022/11/05 08:46:23;;;;;;;2.17;1.98;;;;;;;10.03;100.00;98450.88;4997453;28;20292;-63
2022/11/05 08:48:49;;;;;;;2.95;2.33;;;;;;;10.07;100.00;98441.41;5014503;28;20563;-65
2022/11/05 08:51:14;;;;;;;2.08;1.85;;;;;;;10.11;100.00;98432.78;5014358;28;20392;-66
2022/11/05 08:53:40;;;;;;;5.03;3.25;;;;;;;10.10;100.00;98438.78;4988875;28;20053;-64
2022/11/05 08:56:06;;;;;;;276.50;261.50;;;;;;;10.21;100.00;98451.41;4992259;28;20049;-65
2022/11/05 08:58:32;;;;;;;425.60;400.13;;;;;;;10.19;100.00;98430.94;5007473;28;20062;-65
2022/11/05 09:00:57;;;;;;;462.77;424.40;;;;;;;10.33;100.00;98459.69;5011686;28;20049;-64
2022/11/05 09:03:23;;;;;;;547.27;491.37;;;;;;;10.25;100.00;98437.66;5013375;28;20046;-65
2022/11/05 09:05:49;;;;;;;442.17;415.70;;;;;;;10.24;100.00;98428.28;5014051;28;20504;-66
2022/11/05 09:08:17;;;;;;;197.82;188.68;;;;;;;10.51;100.00;98433.69;5013574;28;20046;-64
2022/11/05 09:10:43;;;;;;;521.47;488.30;;;;;;;10.36;100.00;98425.47;5015181;28;20045;-65
2022/11/05 09:13:09;;;;;;;550.53;510.48;;;;;;;10.34;100.00;98422.94;5014503;28;20081;-65
2022/11/05 09:15:35;;;;;;;554.90;513.55;;;;;;;10.62;100.00;98448.81;5015891;28;20119;-64
2022/11/05 09:18:07;;;;;;;552.53;511.73;;;;;;;10.54;100.00;98438.72;5014853;28;20080;-64
2022/11/05 09:20:35;;;;;;;489.02;459.77;;;;;;;10.58;100.00;98444.63;5014155;28;20099;-65
2022/11/05 09:23:00;;;;;;;179.68;171.98;;;;;;;10.56;100.00;98446.41;5005343;28;20049;-65
2022/11/05 09:25:26;;;;;;;539.25;498.92;;;;;;;10.51;100.00;98435.41;5014603;28;20049;-64
2022/11/05 09:27:52;;;;;;;349.17;330.98;;;;;;;10.51;100.00;98461.88;5012885;28;20053;-65
2022/11/05 09:30:17;;;;;;;162.63;155.60;;;;;;;10.57;100.00;98472.84;5015987;28;20515;-66
2022/11/05 09:32:43;;;;;;;267.13;253.88;;;;;;;10.66;100.00;98467.53;5012385;28;20129;-64
2022/11/05 09:35:09;;;;;;;100.15;95.97;;;;;;;10.82;100.00;98471.47;5007963;28;20889;-63
2022/11/05 09:37:37;;;;;;;33.20;31.73;;;;;;;10.89;100.00;98473.00;5011895;28;20042;-64
2022/11/05 09:40:04;;;;;;;134.57;126.43;;;;;;;10.84;100.00;98467.13;5014038;28;20504;-63
2022/11/05 09:42:36;;;;;;;204.20;188.30;;;;;;;10.83;100.00;98475.69;5015447;28;20484;-66
2022/11/05 09:45:16;;;;;;;19.10;10.60;;;;;;;10.83;100.00;98473.97;5013349;28;20156;-64
2022/11/05 09:47:46;;;;;;;4.32;2.35;;;;;;;10.81;100.00;98480.88;5016730;28;20049;-66
2022/11/05 09:50:30;;;;;;;5.43;2.47;;;;;;;10.93;100.00;98478.03;5017631;28;20045;-64
2022/11/05 09:52:55;;;;;;;253.48;236.55;;;;;;;10.85;100.00;98459.41;5017215;28;20057;-65
2022/11/05 09:55:58;;;;;;;2.45;2.30;;;;;;;11.11;100.00;98486.19;5016318;28;20092;-64
2022/11/05 09:58:42;;;;;;;104.13;95.65;;;;;;;11.04;100.00;98482.91;4936638;28;20086;-64
2022/11/05 10:01:16;;;;;;;48.38;46.08;;;;;;;11.11;100.00;98481.06;4927060;29;20513;-65
2022/11/05 10:03:47;;;;;;;27.60;25.92;;;;;;;11.11;100.00;98489.59;4923728;29;20083;-64
2022/11/05 10:06:19;;;;;;;2.88;2.28;;;;;;;11.08;100.00;98463.13;4926448;29;20059;-62
2022/11/05 10:08:49;;;;;;;12.02;6.78;;;;;;;11.01;100.00;98482.97;4918646;29;20085;-62
2022/11/05 10:11:33;;;;;;;344.50;317.40;;;;;;;11.09;100.00;98495.63;4938135;28;20559;-64
2022/11/05 10:14:10;;;;;;;175.50;168.02;;;;;;;11.30;100.00;98482.28;4919721;29;20138;-65
2022/11/05 10:16:40;;;;;;;390.92;362.40;;;;;;;11.34;100.00;98525.81;4922857;29;20380;-64
2022/11/05 10:19:20;;;;;;;554.60;503.10;;;;;;;11.32;100.00;98496.78;4921287;29;20154;-62
2022/11/05 10:21:47;;;;;;;586.65;541.22;;;;;;;11.50;100.00;98510.88;4923196;29;20050;-64
2022/11/05 10:24:18;;;;;;;579.35;532.80;;;;;;;11.27;100.00;98500.31;4925686;29;20063;-64
2022/11/05 10:26:49;;;;;;;589.50;548.67;;;;;;;11.50;100.00;98508.31;4919584;29;20066;-64
2022/11/05 10:29:28;;;;;;;591.58;541.72;;;;;;;11.29;100.00;98481.44;4919679;29;20039;-65
2022/11/05 10:31:56;;;;;;;573.42;535.40;;;;;;;11.44;100.00;98490.50;4943751;28;20050;-65
2022/11/05 10:34:25;;;;;;;606.22;560.10;;;;;;;11.37;100.00;98476.94;4979753;28;20045;-64
2022/11/05 10:36:50;;;;;;;641.80;588.30;;;;;;;11.24;100.00;98483.28;4996627;28;20045;-67
2022/11/05 10:39:19;;;;;;;619.57;564.27;;;;;;;11.27;100.00;98478.06;4998338;28;20042;-63
2022/11/05 10:41:53;;;;;;;607.35;558.05;;;;;;;11.27;100.00;98508.03;4995803;28;20697;-66
2022/11/05 10:44:28;;;;;;;624.47;572.93;;;;;;;11.17;100.00;98506.53;4998609;28;20041;-64
2022/11/05 10:47:24;;;;;;;447.42;423.38;;;;;;;11.16;100.00;98490.31;4996770;28;20427;-70
2022/11/05 10:49:58;;;;;;;599.97;542.77;;;;;;;11.13;100.00;98471.56;4996998;28;20069;-66
2022/11/05 10:52:32;;;;;;;615.90;554.73;;;;;;;11.20;100.00;98527.84;4997111;28;20077;-64
2022/11/05 10:55:01;;;;;;;619.08;557.28;;;;;;;11.10;100.00;98511.00;4997450;28;20129;-61
2022/11/05 10:57:30;;;;;;;626.57;566.10;;;;;;;11.11;100.00;98514.41;4996556;28;20087;-64
2022/11/05 11:00:17;;;;;;;629.17;568.07;;;;;;;11.26;100.00;98504.63;5016671;28;20053;-65
2022/11/05 11:02:47;;;;;;;631.97;570.50;;;;;;;11.43;100.00;98512.75;5016191;28;20491;-64
2022/11/05 11:05:32;;;;;;;636.30;574.47;;;;;;;11.40;100.00;98509.44;5017268;28;20172;-65
2022/11/05 11:08:05;;;;;;;635.42;574.92;;;;;;;11.30;100.00;98515.66;5009359;28;20072;-66
2022/11/05 11:10:38;;;;;;;632.43;574.17;;;;;;;11.31;100.00;98514.78;5014389;28;20131;-64
2022/11/05 11:13:05;;;;;;;649.87;590.53;;;;;;;11.63;100.00;98511.41;5016261;28;21036;-64
2022/11/05 11:15:35;;;;;;;651.23;593.03;;;;;;;11.60;100.00;98508.94;5016703;28;20041;-65
2022/11/05 11:18:25;;;;;;;666.50;604.80;;;;;;;11.72;100.00;98517.19;5013093;28;20145;-64
2022/11/05 11:20:50;;;;;;;652.63;596.53;;;;;;;11.20;100.00;98507.31;5016071;28;20095;-65
2022/11/05 11:23:16;;;;;;;655.53;598.60;;;;;;;11.13;100.00;98481.84;5015400;28;20472;-64
2022/11/05 11:25:57;;;;;;;652.75;598.88;;;;;;;11.11;100.00;98487.03;5016730;28;20056;-63
2022/11/05 11:28:31;;;;;;;642.33;590.07;;;;;;;11.28;100.00;98504.59;5013181;28;20029;-64
2022/11/05 11:31:10;;;;;;;649.50;594.57;;;;;;;11.11;100.00;98507.56;5015826;28;20042;-63
2022/11/05 11:33:37;;;;;;;606.60;557.85;;;;;;;11.17;100.00;98480.88;5014947;28;20057;-65
2022/11/05 11:36:05;;;;;;;646.87;592.63;;;;;;;11.08;100.00;98492.22;5016145;28;20129;-65
2022/11/05 11:38:34;;;;;;;622.35;579.97;;;;;;;11.05;100.00;98512.81;4997536;28;20048;-65
2022/11/05 11:41:26;;;;;;;604.20;555.92;;;;;;;11.17;100.00;98527.06;5012603;28;20065;-65
2022/11/05 11:43:58;;;;;;;608.17;566.50;;;;;;;11.27;100.00;98513.16;5012572;28;20696;-65
2022/11/05 11:46:24;;;;;;;604.83;563.60;;;;;;;11.04;100.00;98507.69;5014971;28;20495;-64
2022/11/05 11:48:50;;;;;;;540.20;507.80;;;;;;;11.12;100.00;98522.03;5014422;28;20042;-65
2022/11/05 11:51:30;;;;;;;620.50;570.47;;;;;;;11.08;100.00;98525.56;5015274;28;20038;-65
2022/11/05 11:53:58;;;;;;;602.43;554.87;;;;;;;11.06;100.00;98529.06;5015257;28;20140;-65
2022/11/05 11:56:23;;;;;;;517.10;486.67;;;;;;;11.10;100.00;98533.22;4996017;28;20500;-64
2022/11/05 11:58:51;;;;;;;616.87;559.87;;;;;;;10.97;100.00;98548.91;4989927;28;20081;-64
2022/11/05 12:01:22;;;;;;;619.60;562.03;;;;;;;11.05;100.00;98541.03;4994088;28;20119;-62
2022/11/05 12:03:52;;;;;;;623.33;564.63;;;;;;;11.04;100.00;98525.66;4994722;28;20432;-64
2022/11/05 12:06:46;;;;;;;612.93;552.83;;;;;;;10.98;100.00;98532.66;4995047;28;20267;-65
2022/11/05 12:09:39;;;;;;;616.70;558.70;;;;;;;11.00;100.00;98525.75;4994156;28;20156;-63
2022/11/05 12:12:11;;;;;;;612.53;554.63;;;;;;;10.86;100.00;98535.44;4991808;28;20048;-65
2022/11/05 12:14:49;;;;;;;610.43;551.30;;;;;;;10.82;100.00;98538.13;4970833;28;20049;-65
2022/11/05 12:17:30;;;;;;;612.60;553.57;;;;;;;10.86;100.00;98535.44;4994318;28;20045;-63
2022/11/05 12:20:19;;;;;;;613.83;556.10;;;;;;;10.84;100.00;98537.22;4994265;28;20471;-65
2022/11/05 12:23:03;;;;;;;610.33;551.43;;;;;;;10.79;100.00;98540.75;4994420;28;20069;-63
2022/11/05 12:25:40;;;;;;;614.07;558.13;;;;;;;10.85;100.00;98550.88;4993852;28;20038;-64
2022/11/05 12:28:30;;;;;;;622.07;564.97;;;;;;;10.62;100.00;98519.75;4994243;28;20122;-64
2022/11/05 12:31:11;;;;;;;611.00;553.30;;;;;;;10.65;100.00;98530.78;4993791;28;20041;-68
2022/11/05 12:34:10;;;;;;;611.63;552.97;;;;;;;10.68;100.00;98528.16;4995760;28;20128;-64
2022/11/05 12:37:04;;;;;;;621.63;563.20;;;;;;;10.74;100.00;98553.66;4980193;28;20137;-65
2022/11/05 12:39:41;;;;;;;608.70;553.93;;;;;;;10.76;100.00;98562.19;4978349;28;20056;-65
2022/11/05 12:42:28;;;;;;;621.77;567.57;;;;;;;10.66;100.00;98564.94;4993174;28;20043;-65
2022/11/05 12:45:26;;;;;;;628.03;573.23;;;;;;;10.62;100.00;98558.19;4992922;28;20049;-64
2022/11/05 12:48:06;;;;;;;628.33;576.23;;;;;;;10.61;100.00;98571.91;4975362;28;20145;-66
2022/11/05 12:50:34;;;;;;;607.50;562.35;;;;;;;10.62;100.00;98573.59;4989061;28;20443;-64
2022/11/05 12:53:51;;;;;;;611.30;569.38;;;;;;;10.65;100.00;98558.97;4990571;28;20049;-66
2022/11/05 12:56:34;;;;;;;604.58;562.90;;;;;;;10.58;100.00;98572.81;4992797;28;20038;-65
2022/11/05 12:59:12;;;;;;;585.17;548.58;;;;;;;10.57;100.00;98573.66;5005300;28;20495;-64
2022/11/05 13:01:42;;;;;;;578.83;541.75;;;;;;;10.32;100.00;98555.38;5015356;28;20124;-65
2022/11/05 13:05:03;;;;;;;562.33;527.90;;;;;;;10.46;100.00;98565.38;5014476;28;20038;-64
2022/11/05 13:07:42;;;;;;;594.83;552.72;;;;;;;10.30;100.00;98549.44;4940470;29;20046;-64
2022/11/05 13:10:34;;;;;;;551.95;519.22;;;;;;;10.40;100.00;98580.84;4941256;28;20530;-64
2022/11/05 13:13:16;;;;;;;547.08;514.83;;;;;;;10.27;100.00;98561.47;4940759;29;20393;-64
2022/11/05 13:15:50;;;;;;;524.58;492.13;;;;;;;10.35;100.00;98580.97;4942267;29;20054;-64
2022/11/05 13:18:22;;;;;;;517.40;486.75;;;;;;;10.36;100.00;98577.50;4942274;29;20065;-64
2022/11/05 13:20:52;;;;;;;487.30;459.70;;;;;;;10.25;100.00;98584.56;4939664;28;20492;-64
2022/11/05 13:23:46;;;;;;;541.65;507.65;;;;;;;10.22;100.00;98583.78;4941763;29;20899;-65
2022/11/05 13:26:36;;;;;;;585.70;547.10;;;;;;;10.10;100.00;98595.88;4934273;29;20420;-67
2022/11/05 13:29:17;;;;;;;555.55;520.67;;;;;;;9.89;100.00;98568.09;4938131;29;20058;-65
2022/11/05 13:31:52;;;;;;;593.65;552.08;;;;;;;10.03;100.00;98596.88;4939723;28;20048;-65
2022/11/05 13:34:18;;;;;;;579.00;539.22;;;;;;;10.04;100.00;98595.16;4936913;29;20066;-64
2022/11/05 13:39:56;;;;;;;557.22;522.88;;;;;;;9.99;100.00;98582.44;5011974;28;20633;-65
2022/11/05 13:42:33;;;;;;;504.58;474.05;;;;;;;10.10;100.00;98608.69;5014044;28;20559;-64
2022/11/05 13:45:17;;;;;;;490.30;461.67;;;;;;;10.07;100.00;98616.44;5011935;28;20049;-65
2022/11/05 13:48:14;;;;;;;475.13;447.60;;;;;;;10.09;100.00;98607.03;5013379;28;20064;-66
2022/11/05 13:50:44;;;;;;;427.13;400.45;;;;;;;10.04;100.00;98628.44;5012262;28;20045;-64
2022/11/05 13:53:22;;;;;;;474.65;443.73;;;;;;;10.05;100.00;98627.59;5013046;28;20536;-67
2022/11/05 13:56:12;;;;;;;551.75;516.13;;;;;;;10.10;100.00;98626.63;5005127;28;20100;-64
2022/11/05 13:59:15;;;;;;;562.20;525.28;;;;;;;10.09;100.00;98630.06;5012972;28;20177;-63
2022/11/05 14:01:46;;;;;;;525.22;493.73;;;;;;;10.03;100.00;98611.38;5012225;28;20049;-63
2022/11/05 14:04:21;;;;;;;498.45;468.73;;;;;;;10.12;100.00;98611.22;5013402;28;20041;-64
2022/11/05 14:06:47;;;;;;;503.33;473.87;;;;;;;10.09;100.00;98624.09;5012221;28;20128;-64
2022/11/05 14:09:20;;;;;;;389.13;368.35;;;;;;;9.99;100.00;98613.16;5012698;28;21341;-63
2022/11/05 14:11:53;;;;;;;376.23;356.45;;;;;;;10.13;100.00;98650.50;5011467;28;20129;-64
2022/11/05 14:14:24;;;;;;;290.75;276.23;;;;;;;10.13;100.00;98651.34;5012449;28;20045;-63
2022/11/05 14:17:08;;;;;;;206.23;196.60;;;;;;;10.10;100.00;98639.41;4998328;28;20042;-64
2022/11/05 14:20:06;;;;;;;437.58;406.27;;;;;;;10.07;100.00;98642.03;5008608;28;20153;-64
2022/11/05 14:22:32;;;;;;;83.45;79.78;;;;;;;10.19;100.00;98635.03;5012967;28;20458;-64
2022/11/05 14:24:59;;;;;;;135.30;129.07;;;;;;;9.91;100.00;98609.88;5011574;28;20042;-65
2022/11/05 14:27:27;;;;;;;447.05;421.67;;;;;;;10.14;100.00;98644.53;5009911;28;20037;-63
2022/11/05 14:29:53;;;;;;;63.47;60.42;;;;;;;9.99;100.00;98622.56;5006042;28;20034;-65
2022/11/05 14:32:19;;;;;;;14.88;13.80;;;;;;;10.18;100.00;98639.34;5006477;28;20432;-65
2022/11/05 14:35:34;;;;;;;7.68;6.53;;;;;;;10.17;100.00;98654.72;5000956;28;20048;-64
2022/11/05 14:38:01;;;;;;;297.67;282.60;;;;;;;10.14;100.00;98641.97;5014692;28;20077;-64
2022/11/05 14:40:41;;;;;;;222.30;211.55;;;;;;;10.12;100.00;98636.00;5016378;28;20046;-64
2022/11/05 14:43:19;;;;;;;269.10;255.48;;;;;;;10.09;100.00;98642.88;4999569;28;20116;-64
2022/11/05 14:46:00;;;;;;;453.85;428.02;;;;;;;10.03;100.00;98639.56;5014677;28;20034;-64
2022/11/05 14:48:42;;;;;;;193.30;183.98;;;;;;;9.93;100.00;98631.19;5016213;28;20053;-65
2022/11/05 14:51:30;;;;;;;377.52;357.20;;;;;;;9.97;100.00;98635.38;5013643;28;20048;-65
2022/11/05 14:54:23;;;;;;;509.47;383.20;;;;;;;10.00;100.00;98635.34;5015150;28;20038;-64
2022/11/05 14:56:52;;;;;;;509.87;387.53;;;;;;;9.85;100.00;98642.41;5008746;28;20034;-64
2022/11/05 14:59:24;;;;;;;463.83;280.60;;;;;;;10.02;100.00;98650.66;5015095;28;20053;-63
2022/11/05 15:01:49;;;;;;;3.55;3.25;;;;;;;9.98;100.00;98657.56;5015824;28;20458;-63
2022/11/05 15:04:24;;;;;;;510.73;403.20;;;;;;;9.97;100.00;98647.38;5014670;28;20030;-64
2022/11/05 15:07:02;;;;;;;;;;;;;;;9.99;100.00;98668.66;5008066;28;20048;-64
2022/11/05 15:09:37;;;;;;;513.63;398.93;;;;;;;10.03;100.00;98667.72;5014583;28;19928;-64
2022/11/05 15:12:21;;;;;;;402.50;307.75;;;;;;;10.02;100.00;98666.88;5015804;28;20092;-64
2022/11/05 15:14:59;;;;;;;483.00;314.20;;;;;;;9.87;100.00;98656.06;5006673;28;20079;-63
2022/11/05 15:17:29;;;;;;;4.80;4.30;;;;;;;9.84;100.00;98658.66;5016053;28;20056;-64
2022/11/05 15:20:07;;;;;;;459.33;255.63;;;;;;;9.81;100.00;98666.38;5013076;28;20095;-64
2022/11/05 15:22:41;;;;;;;490.97;336.97;;;;;;;9.86;100.00;98654.34;5014873;28;20069;-64
2022/11/05 15:25:33;;;;;;;501.27;375.60;;;;;;;10.03;100.00;98680.53;5015523;28;20060;-63
2022/11/05 15:28:20;;;;;;;514.83;409.33;;;;;;;10.05;100.00;98679.66;5005687;28;20778;-64
2022/11/05 15:31:05;;;;;;;515.77;410.20;;;;;;;9.84;100.00;98659.50;5014988;28;20073;-65
2022/11/05 15:33:31;;;;;;;519.00;414.45;;;;;;;9.94;100.00;98686.66;5015692;28;20484;-62
2022/11/05 15:36:31;;;;;;;521.20;429.47;;;;;;;9.92;100.00;98685.00;5015145;28;20510;-63
2022/11/05 15:38:57;;;;;;;523.97;440.73;;;;;;;9.84;100.00;98679.16;5004183;28;20111;-64
2022/11/05 15:41:33;;;;;;;529.00;447.63;;;;;;;9.82;100.00;98694.53;4995042;28;20107;-64
2022/11/05 15:43:59;;;;;;;517.20;431.37;;;;;;;9.83;100.00;98695.38;5014895;28;20374;-65
2022/11/05 15:46:27;;;;;;;497.63;427.63;;;;;;;9.86;100.00;98703.84;5016574;28;20045;-63
2022/11/05 15:48:54;;;;;;;520.47;422.07;;;;;;;9.86;100.00;98703.84;5015534;28;20132;-63
2022/11/05 15:51:22;;;;;;;525.03;432.60;;;;;;;9.73;100.00;98692.09;5013301;28;20728;-64
2022/11/05 15:53:48;;;;;;;488.13;403.87;;;;;;;9.81;100.00;98704.78;5014753;28;20046;-64
2022/11/05 15:56:32;;;;;;;451.10;404.73;;;;;;;9.55;100.00;98677.84;5007899;28;20480;-64
2022/11/05 15:59:14;;;;;;;505.77;418.70;;;;;;;9.65;100.00;98711.84;5012230;28;20053;-68
2022/11/05 16:01:46;;;;;;;530.27;439.00;;;;;;;9.62;100.00;98719.56;5009844;28;20103;-65
2022/11/05 16:04:21;;;;;;;526.83;420.10;;;;;;;9.57;100.00;98723.91;5007931;28;20129;-62
2022/11/05 16:06:51;;;;;;;525.10;428.77;;;;;;;9.59;100.00;98720.44;5013179;28;20056;-64
2022/11/05 16:09:22;;;;;;;525.03;428.93;;;;;;;9.55;100.00;98713.69;5015875;28;20061;-63
2022/11/05 16:12:10;;;;;;;534.37;451.87;;;;;;;9.49;100.00;98723.16;5002320;28;20045;-64
2022/11/05 16:14:36;;;;;;;525.00;432.40;;;;;;;9.36;100.00;98726.75;5009583;28;20038;-63
2022/11/05 16:17:21;;;;;;;445.83;405.93;;;;;;;9.38;100.00;98733.53;5014048;28;20045;-64
2022/11/05 16:19:47;;;;;;;;;;;;;;;9.42;100.00;98737.72;5011741;28;20085;-64
2022/11/05 16:22:14;;;;;;;440.43;393.03;;;;;;;9.35;100.00;98731.00;5013615;28;19944;-64